Time;durP1;ratioP1;P1;durP2;ratioP2;P2;SDS_P1;SDS_P2;PMS_P1;PMS_P2;Temp;Humidity;BMP_temperature;BMP_pressure;BME280_temperature;BME280_humidity;BME280_pressure;Samples;Min_cycle;Max_cycle;Signal;HPM_P1;HPM_P2
2021/01/17 00:03:46;;;;;;;;;;;1.20;99.90;;;;;;10442577;28;19925;-63
2021/01/17 00:08:48;;;;;;;;;;;1.20;99.90;;;;;;10442136;28;20011;-63
2021/01/17 00:13:50;;;;;;;;;;;1.20;99.90;;;;;;10437918;28;20039;-63
2021/01/17 00:18:51;;;;;;;;;;;1.30;99.90;;;;;;10428813;28;19925;-63
2021/01/17 00:23:52;;;;;;;;;;;1.30;99.90;;;;;;10429782;28;20013;-63
2021/01/17 00:28:53;;;;;;;;;;;1.30;99.90;;;;;;10438182;28;19959;-63
2021/01/17 00:33:55;;;;;;;;;;;1.20;99.90;;;;;;10436115;28;20016;-63
2021/01/17 00:38:56;;;;;;;;;;;1.10;99.90;;;;;;10422074;28;19924;-63
2021/01/17 00:43:57;;;;;;;;;;;1.10;99.90;;;;;;10425046;28;20047;-63
2021/01/17 00:48:59;;;;;;;;;;;1.20;99.90;;;;;;10415108;28;20424;-63
2021/01/17 00:54:00;;;;;;;;;;;1.20;99.90;;;;;;10405637;28;19933;-63
2021/01/17 00:59:01;;;;;;;;;;;1.10;99.90;;;;;;10425842;28;19972;-63
2021/01/17 01:04:03;;;;;;;;;;;1.10;99.90;;;;;;10426496;28;20243;-62
2021/01/17 01:09:06;;;;;;;;;;;1.10;99.90;;;;;;10424509;28;20536;-63
2021/01/17 01:14:08;;;;;;;;;;;1.00;99.90;;;;;;10423487;28;19925;-63
2021/01/17 01:19:09;;;;;;;;;;;1.00;99.90;;;;;;10421579;28;19982;-63
2021/01/17 01:24:11;;;;;;;;;;;1.00;99.90;;;;;;10439350;28;20019;-63
2021/01/17 01:29:13;;;;;;;;;;;1.10;99.90;;;;;;10422573;28;19971;-63
2021/01/17 01:34:14;;;;;;;;;;;1.00;99.90;;;;;;10428662;28;20030;-63
2021/01/17 01:39:15;;;;;;;;;;;1.10;99.90;;;;;;10441539;28;19975;-63
2021/01/17 01:44:17;;;;;;;;;;;1.10;99.90;;;;;;10415666;28;20518;-63
2021/01/17 01:49:18;;;;;;;;;;;1.10;99.90;;;;;;10455839;28;20012;-63
2021/01/17 01:54:19;;;;;;;;;;;1.10;99.90;;;;;;10436784;28;19925;-63
2021/01/17 01:59:21;;;;;;;;;;;1.20;99.90;;;;;;10422334;28;20304;-63
2021/01/17 02:04:22;;;;;;;;;;;1.20;99.90;;;;;;10430279;28;19930;-63
2021/01/17 02:09:25;;;;;;;;;;;1.10;99.90;;;;;;10411548;28;19933;-63
2021/01/17 02:14:36;;;;;;;;;;;1.10;99.90;;;;;;10426929;28;20013;-63
2021/01/17 02:19:37;;;;;;;;;;;1.10;99.90;;;;;;10422797;28;19960;-63
2021/01/17 02:24:48;;;;;;;;;;;1.10;99.90;;;;;;10419461;28;20016;-63
2021/01/17 02:29:49;;;;;;;;;;;1.10;99.90;;;;;;10428535;28;20004;-63
2021/01/17 02:34:51;;;;;;;;;;;1.00;99.90;;;;;;10440145;28;19929;-63
2021/01/17 02:40:04;;;;;;;;;;;1.10;99.90;;;;;;10436273;28;19925;-63
2021/01/17 02:45:05;;;;;;;;;;;1.10;99.90;;;;;;10461682;28;19999;-63
2021/01/17 02:50:08;;;;;;;;;;;1.20;99.90;;;;;;10445573;28;19964;-63
2021/01/17 02:55:10;;;;;;;;;;;1.30;99.90;;;;;;10416408;28;19980;-63
2021/01/17 03:00:12;;;;;;;;;;;1.30;99.90;;;;;;10424665;28;20353;-63
2021/01/17 03:05:17;;;;;;;;;;;1.40;99.90;;;;;;10427291;28;19983;-63
2021/01/17 03:10:18;;;;;;;;;;;1.30;99.90;;;;;;10454416;28;19968;-63
2021/01/17 03:15:20;;;;;;;;;;;1.40;99.90;;;;;;10440004;28;19924;-63
2021/01/17 03:20:22;;;;;;;;;;;1.40;99.90;;;;;;10427672;28;19975;-63
2021/01/17 03:25:23;;;;;;;;;;;1.40;99.90;;;;;;10432713;28;19991;-63
2021/01/17 03:30:25;;;;;;;;;;;1.30;99.90;;;;;;10451318;28;19964;-63
2021/01/17 03:35:26;;;;;;;;;;;1.20;99.90;;;;;;10424775;28;20357;-63
2021/01/17 03:40:27;;;;;;;;;;;1.20;99.90;;;;;;10424803;28;20471;-63
2021/01/17 03:45:28;;;;;;;;;;;1.30;99.90;;;;;;10450279;28;20011;-63
2021/01/17 03:50:30;;;;;;;;;;;1.50;99.90;;;;;;10443269;28;19964;-63
2021/01/17 03:55:31;;;;;;;;;;;1.50;99.90;;;;;;10422639;28;19931;-63
2021/01/17 04:00:32;;;;;;;;;;;1.60;99.90;;;;;;10425194;28;20168;-63
2021/01/17 04:05:34;;;;;;;;;;;1.50;99.90;;;;;;10435704;28;20347;-63
2021/01/17 04:10:35;;;;;;;;;;;1.50;99.90;;;;;;10415970;28;19956;-63
2021/01/17 04:15:36;;;;;;;;;;;1.30;99.90;;;;;;10421108;28;19964;-63
2021/01/17 04:20:38;;;;;;;;;;;1.30;99.90;;;;;;10458166;28;19924;-63
2021/01/17 04:25:40;;;;;;;;;;;1.30;99.90;;;;;;10439106;28;19928;-63
2021/01/17 04:30:42;;;;;;;;;;;1.30;99.90;;;;;;10443259;28;20357;-63
2021/01/17 04:35:43;;;;;;;;;;;1.30;99.90;;;;;;10442539;28;19925;-63
2021/01/17 04:40:44;;;;;;;;;;;1.40;99.90;;;;;;10411148;28;19972;-63
2021/01/17 04:45:47;;;;;;;;;;;1.50;99.90;;;;;;10413142;28;19995;-63
2021/01/17 04:50:49;;;;;;;;;;;1.40;99.90;;;;;;10446649;28;20007;-63
2021/01/17 04:55:51;;;;;;;;;;;1.30;99.90;;;;;;10450647;28;19931;-63
2021/01/17 05:00:57;;;;;;;;;;;1.30;99.90;;;;;;10426755;28;19975;-63
2021/01/17 05:06:13;;;;;;;;;;;1.30;99.90;;;;;;10431325;28;20035;-63
2021/01/17 05:11:30;;;;;;;;;;;1.30;99.90;;;;;;10480875;28;19994;-63
2021/01/17 05:16:36;;;;;;;;;;;1.30;99.90;;;;;;10445149;28;20025;-63
2021/01/17 05:21:38;;;;;;;;;;;1.30;99.90;;;;;;10439499;28;20350;-63
2021/01/17 05:26:41;;;;;;;;;;;1.40;99.90;;;;;;10441417;28;19972;-63
2021/01/17 05:31:42;;;;;;;;;;;1.40;99.90;;;;;;10428519;28;19925;-63
2021/01/17 05:36:44;;;;;;;;;;;1.50;99.90;;;;;;10436619;28;19937;-63
2021/01/17 05:41:45;;;;;;;;;;;1.60;99.90;;;;;;10412537;28;20017;-63
2021/01/17 05:47:00;;;;;;;;;;;1.60;99.90;;;;;;10429834;28;20025;-63
2021/01/17 05:52:11;;;;;;;;;;;1.40;99.90;;;;;;10434595;28;19925;-63
2021/01/17 05:57:14;;;;;;;;;;;1.30;99.90;;;;;;10421386;28;20040;-63
2021/01/17 06:02:24;;;;;;;;;;;1.40;99.90;;;;;;10425793;28;20023;-63
2021/01/17 06:07:27;;;;;;;;;;;1.40;99.90;;;;;;10440292;28;19960;-63
2021/01/17 06:12:35;;;;;;;;;;;1.50;99.90;;;;;;10444664;28;20416;-63
2021/01/17 06:17:47;;;;;;;;;;;1.50;99.90;;;;;;10435405;28;19987;-63
2021/01/17 06:22:54;;;;;;;;;;;1.50;99.90;;;;;;10423350;28;19956;-63
2021/01/17 06:28:09;;;;;;;;;;;1.50;99.90;;;;;;10448283;28;20361;-63
2021/01/17 06:33:21;;;;;;;;;;;1.50;99.90;;;;;;10449099;28;20335;-63
2021/01/17 06:38:38;;;;;;;;;;;1.30;99.90;;;;;;10434074;28;19924;-63
2021/01/17 06:43:44;;;;;;;;;;;1.40;99.90;;;;;;10449624;28;19971;-63
2021/01/17 06:48:45;;;;;;;;;;;1.30;99.90;;;;;;10434127;28;20023;-63
2021/01/17 06:53:50;;;;;;;;;;;1.30;99.90;;;;;;10423426;28;20110;-63
2021/01/17 06:58:52;;;;;;;;;;;1.40;99.90;;;;;;10446969;28;20416;-63
2021/01/17 07:03:53;;;;;;;;;;;1.40;99.90;;;;;;10432946;28;19929;-63
2021/01/17 07:09:00;;;;;;;;;;;1.30;99.90;;;;;;10426074;28;20304;-63
2021/01/17 07:14:05;;;;;;;;;;;1.40;99.90;;;;;;10448416;28;19983;-63
2021/01/17 07:19:07;;;;;;;;;;;1.50;99.90;;;;;;10449057;28;19967;-63
2021/01/17 07:24:09;;;;;;;;;;;1.60;99.90;;;;;;10464336;28;19972;-63
2021/01/17 07:29:14;;;;;;;;;;;1.70;99.90;;;;;;10451650;28;19925;-63
2021/01/17 07:34:17;;;;;;;;;;;1.70;99.90;;;;;;10448340;28;19925;-63
2021/01/17 07:39:20;;;;;;;;;;;1.60;99.90;;;;;;10480178;28;19929;-63
2021/01/17 07:44:21;;;;;;;;;;;1.50;99.90;;;;;;10484728;28;19967;-63
2021/01/17 07:49:23;;;;;;;;;;;1.50;99.90;;;;;;10449913;28;19960;-63
2021/01/17 07:54:27;;;;;;;;;;;1.60;99.90;;;;;;10451998;28;19975;-63
2021/01/17 07:59:29;;;;;;;;;;;1.60;99.90;;;;;;10478818;28;19979;-63
2021/01/17 08:04:30;;;;;;;;;;;1.70;99.90;;;;;;10410722;28;20474;-63
2021/01/17 08:09:40;;;;;;;;;;;1.80;99.90;;;;;;10444732;28;20435;-63
2021/01/17 08:14:42;;;;;;;;;;;1.80;99.90;;;;;;10406112;28;20440;-63
2021/01/17 08:19:52;;;;;;;;;;;1.80;99.90;;;;;;10425710;28;19928;-63
2021/01/17 08:25:01;;;;;;;;;;;1.80;99.90;;;;;;10424857;28;19930;-63
2021/01/17 08:30:02;;;;;;;;;;;1.80;99.90;;;;;;10445253;28;20070;-63
2021/01/17 08:35:10;;;;;;;;;;;2.00;99.90;;;;;;10442787;28;20027;-63
2021/01/17 08:40:18;;;;;;;;;;;2.10;99.90;;;;;;10441214;28;19968;-63
2021/01/17 08:45:20;;;;;;;;;;;2.10;99.90;;;;;;10443677;28;20412;-63
2021/01/17 08:50:31;;;;;;;;;;;2.20;99.90;;;;;;10459447;28;19979;-63
2021/01/17 08:55:40;;;;;;;;;;;2.20;99.90;;;;;;10442880;28;19929;-63
2021/01/17 09:00:55;;;;;;;;;;;2.10;99.90;;;;;;10442999;28;20020;-63
2021/01/17 09:05:58;;;;;;;;;;;2.10;99.90;;;;;;10443325;28;20050;-63
2021/01/17 09:11:00;;;;;;;;;;;2.10;99.90;;;;;;10442881;28;20016;-63
2021/01/17 09:16:06;;;;;;;;;;;2.30;99.90;;;;;;10418260;28;20325;-63
2021/01/17 09:21:08;;;;;;;;;;;2.30;99.90;;;;;;10450149;28;19935;-63
2021/01/17 09:26:09;;;;;;;;;;;2.50;99.90;;;;;;10434902;28;20456;-63
2021/01/17 09:31:10;;;;;;;;;;;2.50;99.90;;;;;;10450106;28;20007;-63
2021/01/17 09:36:12;;;;;;;;;;;2.60;99.90;;;;;;10417064;28;19986;-63
2021/01/17 09:41:20;;;;;;;;;;;2.70;99.90;;;;;;10410271;28;20456;-63
2021/01/17 09:46:24;;;;;;;;;;;2.90;99.90;;;;;;10431427;28;20024;-63
2021/01/17 09:51:28;;;;;;;;;;;3.00;99.90;;;;;;10420047;28;19932;-63
2021/01/17 09:56:30;;;;;;;;;;;2.90;99.90;;;;;;10426511;28;20404;-63
2021/01/17 10:01:34;;;;;;;;;;;3.00;99.90;;;;;;10449266;28;20012;-63
2021/01/17 10:06:39;;;;;;;;;;;3.00;99.90;;;;;;10459742;28;19924;-63
2021/01/17 10:11:42;;;;;;;;;;;3.00;99.90;;;;;;10447776;28;20325;-63
2021/01/17 10:16:48;;;;;;;;;;;3.10;99.90;;;;;;10447179;28;20031;-63
2021/01/17 10:21:50;;;;;;;;;;;3.20;99.90;;;;;;10443863;28;19979;-64
2021/01/17 10:26:52;;;;;;;;;;;3.30;99.90;;;;;;10438082;28;20027;-63
2021/01/17 10:31:59;;;;;;;;;;;3.30;99.90;;;;;;10411020;28;20015;-63
2021/01/17 10:37:02;;;;;;;;;;;3.50;99.90;;;;;;10410031;28;20289;-63
2021/01/17 10:42:05;;;;;;;;;;;3.80;99.90;;;;;;10429193;28;19936;-63
2021/01/17 10:47:12;;;;;;;;;;;4.00;99.90;;;;;;10463889;28;19925;-63
2021/01/17 10:52:23;;;;;;;;;;;4.20;99.90;;;;;;10450343;28;19940;-63
2021/01/17 10:57:24;;;;;;;;;;;4.20;99.90;;;;;;10449379;28;20019;-63
2021/01/17 11:02:25;;;;;;;;;;;4.70;99.90;;;;;;10449872;28;19964;-63
2021/01/17 11:07:29;;;;;;;;;;;4.40;99.90;;;;;;10449169;28;19924;-63
2021/01/17 11:12:38;;;;;;;;;;;4.40;99.90;;;;;;10449785;28;20448;-63
2021/01/17 11:17:40;;;;;;;;;;;4.40;99.90;;;;;;10448519;28;20428;-63
2021/01/17 11:22:42;;;;;;;;;;;4.50;99.90;;;;;;10449140;28;19975;-63
2021/01/17 11:27:46;;;;;;;;;;;4.50;99.90;;;;;;10448402;28;19968;-63
2021/01/17 11:32:48;;;;;;;;;;;4.40;99.90;;;;;;10447912;28;20399;-63
2021/01/17 11:37:50;;;;;;;;;;;4.40;99.90;;;;;;10448325;28;20020;-63
2021/01/17 11:43:02;;;;;;;;;;;4.40;99.90;;;;;;10447937;28;20368;-63
2021/01/17 11:48:04;;;;;;;;;;;4.30;99.90;;;;;;10447259;28;20377;-64
2021/01/17 11:53:07;;;;;;;;;;;4.20;99.90;;;;;;10448481;28;20015;-63
2021/01/17 11:58:12;;;;;;;;;;;4.40;99.90;;;;;;10462048;28;20329;-63
2021/01/17 12:03:40;;;;;;;;;;;4.40;99.90;;;;;;10447059;28;20015;-63
2021/01/17 12:08:54;;;;;;;;;;;4.30;99.90;;;;;;10441847;28;19983;-63
2021/01/17 12:13:55;;;;;;;;;;;4.30;99.90;;;;;;10445034;28;19937;-63
2021/01/17 12:18:57;;;;;;;;;;;4.20;99.90;;;;;;10446467;28;20036;-64
2021/01/17 12:23:59;;;;;;;;;;;4.20;99.90;;;;;;10446455;28;19971;-63
2021/01/17 12:29:01;;;;;;;;;;;4.20;99.90;;;;;;10445759;28;19924;-63
2021/01/17 12:34:03;;;;;;;;;;;4.10;99.90;;;;;;10445675;28;20418;-63
2021/01/17 12:39:09;;;;;;;;;;;4.20;99.90;;;;;;10446468;28;19983;-63
2021/01/17 12:44:11;;;;;;;;;;;4.30;99.90;;;;;;10446210;28;19925;-63
2021/01/17 12:49:13;;;;;;;;;;;4.30;99.90;;;;;;10446109;28;20440;-63
2021/01/17 12:54:14;;;;;;;;;;;4.30;99.90;;;;;;10446790;28;19975;-63
2021/01/17 12:59:16;;;;;;;;;;;4.20;99.90;;;;;;10445789;28;19964;-63
2021/01/17 13:04:17;;;;;;;;;;;4.10;99.90;;;;;;10445921;28;19982;-63
2021/01/17 13:09:18;;;;;;;;;;;4.00;99.90;;;;;;10446136;28;19968;-63
2021/01/17 13:14:19;;;;;;;;;;;4.00;99.90;;;;;;10452805;28;20019;-63
2021/01/17 13:19:21;;;;;;;;;;;4.00;99.90;;;;;;10453705;28;19968;-63
2021/01/17 13:24:22;;;;;;;;;;;4.10;99.90;;;;;;10452597;28;19964;-63
2021/01/17 13:29:23;;;;;;;;;;;4.10;99.90;;;;;;10451632;28;20015;-63
2021/01/17 13:34:24;;;;;;;;;;;4.10;99.90;;;;;;10452517;28;19933;-63
2021/01/17 13:39:26;;;;;;;;;;;4.20;99.90;;;;;;10452916;28;19924;-63
2021/01/17 13:44:27;;;;;;;;;;;4.30;99.90;;;;;;10452416;28;19971;-63
2021/01/17 13:49:29;;;;;;;;;;;4.40;99.90;;;;;;10452357;28;20411;-63
2021/01/17 13:54:30;;;;;;;;;;;4.30;99.90;;;;;;10452402;28;19925;-63
2021/01/17 13:59:31;;;;;;;;;;;4.20;99.90;;;;;;10451886;28;19999;-63
2021/01/17 14:04:32;;;;;;;;;;;4.00;99.90;;;;;;10451918;28;19971;-63
2021/01/17 14:09:34;;;;;;;;;;;3.80;99.90;;;;;;10451978;28;19972;-63
2021/01/17 14:14:36;;;;;;;;;;;3.80;99.90;;;;;;10451048;28;19974;-63
2021/01/17 14:19:39;;;;;;;;;;;3.90;99.90;;;;;;10466682;28;19928;-63
2021/01/17 14:24:40;;;;;;;;;;;3.90;99.90;;;;;;10451272;28;20432;-63
2021/01/17 14:29:42;;;;;;;;;;;3.90;99.90;;;;;;10450917;28;19925;-63
2021/01/17 14:34:43;;;;;;;;;;;3.90;99.90;;;;;;10450631;28;19963;-63
2021/01/17 14:39:44;;;;;;;;;;;3.90;99.90;;;;;;10450648;28;20365;-63
2021/01/17 14:44:46;;;;;;;;;;;3.90;99.90;;;;;;10450487;28;20385;-63
2021/01/17 14:49:47;;;;;;;;;;;3.90;99.90;;;;;;10450213;28;19924;-63
2021/01/17 14:54:48;;;;;;;;;;;3.90;99.90;;;;;;10450023;28;19968;-63
2021/01/17 14:59:50;;;;;;;;;;;3.80;99.90;;;;;;10449319;28;20033;-63
2021/01/17 15:04:51;;;;;;;;;;;3.80;99.90;;;;;;10449420;28;19925;-63
2021/01/17 15:09:52;;;;;;;;;;;3.70;99.90;;;;;;10449292;28;19964;-63
2021/01/17 15:14:54;;;;;;;;;;;3.70;99.90;;;;;;10448625;28;19933;-63
2021/01/17 15:19:55;;;;;;;;;;;3.70;99.90;;;;;;10448902;28;20344;-63
2021/01/17 15:24:56;;;;;;;;;;;3.70;99.90;;;;;;10448828;28;19975;-63
2021/01/17 15:29:57;;;;;;;;;;;3.70;99.90;;;;;;10448764;28;20359;-63
2021/01/17 15:34:59;;;;;;;;;;;3.60;99.90;;;;;;10447829;28;20416;-63
2021/01/17 15:40:00;;;;;;;;;;;3.60;99.90;;;;;;10448429;28;20015;-63
2021/01/17 15:45:02;;;;;;;;;;;3.60;99.90;;;;;;10447553;28;19960;-63
2021/01/17 15:50:03;;;;;;;;;;;3.60;99.90;;;;;;10447674;28;19976;-63
2021/01/17 15:55:05;;;;;;;;;;;3.60;99.90;;;;;;10447592;28;20048;-63
2021/01/17 16:00:06;;;;;;;;;;;3.60;99.90;;;;;;10447341;28;20012;-63
2021/01/17 16:05:08;;;;;;;;;;;3.40;99.90;;;;;;10447519;28;19948;-63
2021/01/17 16:10:09;;;;;;;;;;;3.30;99.90;;;;;;10447055;28;19970;-63
2021/01/17 16:15:11;;;;;;;;;;;3.20;99.90;;;;;;10447129;28;20426;-63
2021/01/17 16:20:12;;;;;;;;;;;3.30;99.90;;;;;;10447001;28;19924;-63
2021/01/17 16:25:14;;;;;;;;;;;3.30;99.90;;;;;;10446881;28;19963;-63
2021/01/17 16:30:16;;;;;;;;;;;3.30;99.90;;;;;;10446079;28;20015;-63
2021/01/17 16:35:19;;;;;;;;;;;3.30;99.90;;;;;;10446886;28;19925;-63
2021/01/17 16:40:21;;;;;;;;;;;3.40;99.90;;;;;;10446476;28;19979;-63
2021/01/17 16:45:22;;;;;;;;;;;3.40;99.90;;;;;;10446899;28;20011;-63
2021/01/17 16:50:24;;;;;;;;;;;3.40;99.90;;;;;;10454998;28;19929;-63
2021/01/17 16:55:25;;;;;;;;;;;3.40;99.90;;;;;;10454672;28;19978;-63
2021/01/17 17:00:26;;;;;;;;;;;3.30;99.90;;;;;;10454639;28;20023;-63
2021/01/17 17:05:27;;;;;;;;;;;3.40;99.90;;;;;;10454437;28;20016;-63
2021/01/17 17:10:29;;;;;;;;;;;3.50;99.90;;;;;;10454158;28;19928;-63
2021/01/17 17:15:30;;;;;;;;;;;3.40;99.90;;;;;;10453483;28;20023;-63
2021/01/17 17:20:31;;;;;;;;;;;3.50;99.90;;;;;;10469079;28;19928;-63
2021/01/17 17:25:34;;;;;;;;;;;3.50;99.90;;;;;;10453851;28;20211;-63
2021/01/17 17:30:36;;;;;;;;;;;3.50;99.90;;;;;;10452875;28;19924;-63
2021/01/17 17:35:39;;;;;;;;;;;3.50;99.90;;;;;;10453368;28;20019;-63
2021/01/17 17:40:44;;;;;;;;;;;3.50;99.90;;;;;;10452994;28;19975;-63
2021/01/17 17:45:45;;;;;;;;;;;3.50;99.90;;;;;;10452398;28;20019;-63
2021/01/17 17:50:47;;;;;;;;;;;3.50;99.90;;;;;;10452426;28;20401;-63
2021/01/17 17:55:48;;;;;;;;;;;3.50;99.90;;;;;;10451809;28;20250;-63
2021/01/17 18:00:53;;;;;;;;;;;3.50;99.90;;;;;;10451884;28;20114;-63
2021/01/17 18:05:54;;;;;;;;;;;3.70;99.90;;;;;;10452000;28;20385;-63
2021/01/17 18:10:56;;;;;;;;;;;3.60;99.90;;;;;;10451607;28;20373;-63
2021/01/17 18:15:57;;;;;;;;;;;3.60;99.90;;;;;;10451198;28;19928;-63
2021/01/17 18:20:58;;;;;;;;;;;3.60;99.90;;;;;;10451306;28;20015;-63
2021/01/17 18:26:00;;;;;;;;;;;3.60;99.90;;;;;;10451390;28;19928;-63
2021/01/17 18:31:01;;;;;;;;;;;3.70;99.90;;;;;;10450952;28;20039;-63
2021/01/17 18:36:03;;;;;;;;;;;3.70;99.90;;;;;;10451440;28;20023;-63
2021/01/17 18:41:07;;;;;;;;;;;3.70;99.90;;;;;;10450792;28;20433;-63
2021/01/17 18:46:08;;;;;;;;;;;3.70;99.90;;;;;;10449528;28;20372;-63
2021/01/17 18:51:12;;;;;;;;;;;3.70;99.90;;;;;;10450161;28;19925;-63
2021/01/17 18:56:14;;;;;;;;;;;3.70;99.90;;;;;;10449731;28;19968;-63
2021/01/17 19:01:15;;;;;;;;;;;3.70;99.90;;;;;;10449560;28;19971;-63
2021/01/17 19:06:16;;;;;;;;;;;3.80;99.90;;;;;;10450571;28;19986;-63
2021/01/17 19:11:20;;;;;;;;;;;3.90;99.90;;;;;;10448548;28;19983;-63
2021/01/17 19:16:22;;;;;;;;;;;3.90;99.90;;;;;;10448849;28;19974;-63
2021/01/17 19:21:23;;;;;;;;;;;3.80;99.90;;;;;;10449079;28;20284;-63
2021/01/17 19:26:25;;;;;;;;;;;3.80;99.90;;;;;;10448608;28;20323;-63
2021/01/17 19:31:26;;;;;;;;;;;3.80;99.90;;;;;;10448572;28;19978;-63
2021/01/17 19:36:28;;;;;;;;;;;3.70;99.90;;;;;;10447175;28;19931;-63
2021/01/17 19:41:35;;;;;;;;;;;3.60;99.90;;;;;;10463088;28;19925;-63
2021/01/17 19:46:37;;;;;;;;;;;3.70;99.90;;;;;;10446923;28;19972;-63
2021/01/17 19:51:43;;;;;;;;;;;3.80;99.90;;;;;;10447886;28;19925;-63
2021/01/17 19:56:44;;;;;;;;;;;3.90;99.90;;;;;;10447361;28;19960;-63
2021/01/17 20:01:46;;;;;;;;;;;4.00;99.90;;;;;;10447173;28;19967;-63
2021/01/17 20:06:49;;;;;;;;;;;4.10;99.90;;;;;;10447275;28;20262;-63
2021/01/17 20:11:51;;;;;;;;;;;4.10;99.90;;;;;;10447093;28;19925;-63
2021/01/17 20:16:52;;;;;;;;;;;4.00;99.90;;;;;;10446296;28;19929;-63
2021/01/17 20:21:53;;;;;;;;;;;3.90;99.90;;;;;;10445229;28;19928;-63
2021/01/17 20:26:55;;;;;;;;;;;4.00;99.90;;;;;;10446648;28;19956;-63
2021/01/17 20:31:56;;;;;;;;;;;4.00;99.90;;;;;;10447003;28;19959;-63
2021/01/17 20:36:58;;;;;;;;;;;4.00;99.90;;;;;;10446586;28;19986;-63
2021/01/17 20:41:59;;;;;;;;;;;3.90;99.90;;;;;;10446625;28;19932;-63
2021/01/17 20:47:02;;;;;;;;;;;3.90;99.90;;;;;;10445471;28;20393;-63
2021/01/17 20:52:03;;;;;;;;;;;3.90;99.90;;;;;;10446296;28;19925;-63
2021/01/17 20:57:06;;;;;;;;;;;3.90;99.90;;;;;;10446036;28;20024;-63
2021/01/17 21:02:07;;;;;;;;;;;3.90;99.90;;;;;;10445922;28;19924;-63
2021/01/17 21:07:10;;;;;;;;;;;4.00;99.90;;;;;;10446116;28;19971;-63
2021/01/17 21:12:11;;;;;;;;;;;4.00;99.90;;;;;;10446012;28;19960;-63
2021/01/17 21:17:12;;;;;;;;;;;4.00;99.90;;;;;;10445548;28;20027;-63
2021/01/17 21:22:14;;;;;;;;;;;4.00;99.90;;;;;;10445986;28;20393;-63
2021/01/17 21:27:15;;;;;;;;;;;4.00;99.90;;;;;;10444982;28;19990;-63
2021/01/17 21:32:17;;;;;;;;;;;4.00;99.90;;;;;;10447411;28;19971;-63
2021/01/17 21:37:18;;;;;;;;;;;4.00;99.90;;;;;;10453130;28;20420;-63
2021/01/17 21:42:19;;;;;;;;;;;4.10;99.90;;;;;;10452883;28;20357;-63
2021/01/17 21:47:21;;;;;;;;;;;4.10;99.90;;;;;;10452150;28;19924;-63
2021/01/17 21:52:23;;;;;;;;;;;4.20;99.90;;;;;;10452846;28;19925;-63
2021/01/17 21:57:24;;;;;;;;;;;4.10;99.90;;;;;;10452619;28;20016;-64
2021/01/17 22:02:26;;;;;;;;;;;4.10;99.90;;;;;;10452242;28;20023;-63
2021/01/17 22:07:38;;;;;;;;;;;4.10;99.90;;;;;;10451740;28;19956;-63
2021/01/17 22:12:40;;;;;;;;;;;4.10;99.90;;;;;;10447351;28;20014;-63
2021/01/17 22:17:42;;;;;;;;;;;4.10;99.90;;;;;;10412266;28;19925;-64
2021/01/17 22:22:45;;;;;;;;;;;4.10;99.90;;;;;;10410870;28;19925;-64
2021/01/17 22:27:48;;;;;;;;;;;4.20;99.90;;;;;;10417857;28;19983;-64
2021/01/17 22:32:50;;;;;;;;;;;4.10;99.90;;;;;;10422765;28;19970;-64
2021/01/17 22:37:51;;;;;;;;;;;4.20;99.90;;;;;;10438455;28;20040;-63
2021/01/17 22:42:53;;;;;;;;;;;4.20;99.90;;;;;;10448298;28;20324;-64
2021/01/17 22:47:56;;;;;;;;;;;4.20;99.90;;;;;;10434457;28;20385;-64
2021/01/17 22:52:57;;;;;;;;;;;4.20;99.90;;;;;;10418258;28;19956;-64
2021/01/17 22:57:58;;;;;;;;;;;4.20;99.90;;;;;;10420034;28;20359;-64
2021/01/17 23:03:00;;;;;;;;;;;4.20;99.90;;;;;;10444624;28;19991;-64
2021/01/17 23:08:03;;;;;;;;;;;4.20;99.90;;;;;;10428520;28;19931;-64
2021/01/17 23:13:05;;;;;;;;;;;4.20;99.90;;;;;;10445242;28;20396;-64
2021/01/17 23:18:07;;;;;;;;;;;4.20;99.90;;;;;;10426411;28;19924;-63
2021/01/17 23:23:08;;;;;;;;;;;4.20;99.90;;;;;;10423877;28;19992;-64
2021/01/17 23:28:09;;;;;;;;;;;4.20;99.90;;;;;;10438560;28;20016;-64
2021/01/17 23:33:11;;;;;;;;;;;4.20;99.90;;;;;;10415970;28;20011;-64
2021/01/17 23:38:12;;;;;;;;;;;4.20;99.90;;;;;;10412473;28;20020;-64
2021/01/17 23:43:13;;;;;;;;;;;4.10;99.90;;;;;;10432977;28;19925;-64
2021/01/17 23:48:16;;;;;;;;;;;4.20;99.90;;;;;;10436094;28;20568;-64
2021/01/17 23:53:18;;;;;;;;;;;4.10;99.90;;;;;;10427597;28;20266;-64
2021/01/17 23:58:19;;;;;;;;;;;4.10;99.90;;;;;;10427313;28;20000;-64
